»·PEaware :: DAL143 KMFR-KSFO

DAL143 :: KMFR-KSFO

FLIGHT INFORMATION

Flight Status: Arrived
Operator:
Delta Air Lines
More flights by this operator :: More flights under this callsign
Pilot: Anonymous 16492 (16492)
Aircraft: BOEING 737-200
(B732)
More flights by this aircraft type
Origin: KMFR Rogue Valley Intl-Medford
United States
Destination: KSFO San Francisco Intl
United States
More flights between these airports :: More routes between these airports
Route: +MLBEC BDEGA3
File this flight plan on PilotEdge
Remarks:
Altitude:
(Current/Filed)
29,000ft
Speed:
(Current/Filed)
400kts
Departed: 18-Oct-18 06:26 PM
Arrived: 18-Oct-18 07:26 PM
Distance/Time
Traveled:
286nm/0:59
Distance/Time
To Go:
Arrived

Flight Plot

Page will automatically refresh every two minutes.

Flight plan parsing failed; only flown route is shown


Map Options




Map Legend


Flown Route
Filed Route
Departure Airport
Arrival Airport
Navaid (VOR, NDB)
Fix

Horizontal Profiles

Position Reports

Time Latitude Longitude Heading Altitude Ground
Speed
18-Oct-18 18:00 42.369015 -122.873399 249 1342ft 0kts
18-Oct-18 18:01 42.369015 -122.873399 249 1342ft 0kts
18-Oct-18 18:02 42.369015 -122.873399 249 1342ft 0kts
18-Oct-18 18:03 42.369015 -122.873399 249 1342ft 0kts
18-Oct-18 18:04 42.369015 -122.873399 249 1342ft 0kts
18-Oct-18 18:05 42.369015 -122.873399 249 1342ft 0kts
18-Oct-18 18:06 42.369015 -122.873399 249 1342ft 0kts
18-Oct-18 18:07 42.369015 -122.873399 249 1342ft 0kts
18-Oct-18 18:08 42.369015 -122.873399 249 1342ft 0kts
18-Oct-18 18:09 42.369015 -122.873399 249 1342ft 0kts
18-Oct-18 18:10 42.369015 -122.873399 249 1342ft 0kts
18-Oct-18 18:11 42.369015 -122.873399 249 1342ft 0kts
18-Oct-18 18:12 42.369015 -122.873399 249 1342ft 0kts
18-Oct-18 18:13 42.369015 -122.873399 249 1342ft 0kts
18-Oct-18 18:14 42.369015 -122.873399 249 1342ft 0kts
18-Oct-18 18:15 42.369015 -122.873399 249 1342ft 0kts
18-Oct-18 18:16 42.369015 -122.873399 249 1342ft 0kts
18-Oct-18 18:17 42.369015 -122.873399 249 1342ft 0kts
18-Oct-18 18:18 42.369101 -122.873081 249 1342ft 2kts
18-Oct-18 18:19 42.369428 -122.872597 163 1342ft 2kts
18-Oct-18 18:20 42.369575 -122.872995 79 1342ft 0kts
18-Oct-18 18:21 42.369575 -122.872995 79 1342ft 0kts
18-Oct-18 18:22 42.369575 -122.872995 79 1342ft 0kts
18-Oct-18 18:23 42.373975 -122.874368 337 1342ft 38kts
18-Oct-18 18:24 42.384021 -122.879643 337 1342ft 14kts
18-Oct-18 18:25 42.385547 -122.880314 4 1342ft 0kts
18-Oct-18 18:26 42.385547 -122.880314 4 1342ft 0kts
18-Oct-18 18:27 42.385773 -122.878949 158 1342ft 0kts
18-Oct-18 18:28 42.361548 -122.866462 161 1606ft 186kts
18-Oct-18 18:29 42.324215 -122.898682 278 3979ft 235kts
18-Oct-18 18:30 42.377777 -122.934421 353 6960ft 244kts
18-Oct-18 18:31 42.416914 -123.004786 274 9611ft 258kts
18-Oct-18 18:32 42.366574 -123.055088 160 11271ft 290kts
18-Oct-18 18:33 42.278186 -123.044851 178 12209ft 337kts
18-Oct-18 18:34 42.183282 -123.042429 177 13845ft 347kts
18-Oct-18 18:35 42.085235 -123.039839 177 15386ft 362kts
18-Oct-18 18:36 41.983913 -123.037175 177 17813ft 373kts
18-Oct-18 18:37 41.880600 -123.034454 176 19798ft 386kts
18-Oct-18 18:38 41.772271 -123.031610 176 21571ft 399kts
18-Oct-18 18:39 41.660515 -123.028686 176 22707ft 407kts
18-Oct-18 18:40 41.547284 -123.025738 176 23643ft 414kts
18-Oct-18 18:41 41.431852 -123.022744 176 24497ft 420kts
18-Oct-18 18:42 41.315279 -123.019722 176 24791ft 424kts
18-Oct-18 18:43 41.196895 -123.016678 176 25714ft 429kts
18-Oct-18 18:44 41.076889 -123.013593 176 26533ft 435kts
18-Oct-18 18:45 40.956423 -123.010504 176 27338ft 437kts
18-Oct-18 18:46 40.839447 -123.007535 176 27936ft 442kts
18-Oct-18 18:47 40.717276 -123.004436 176 28496ft 446kts
18-Oct-18 18:48 40.593528 -123.001307 176 29008ft 450kts
18-Oct-18 18:49 40.467112 -122.998109 176 29105ft 463kts
18-Oct-18 18:50 40.337551 -122.994857 176 29105ft 476kts
18-Oct-18 18:51 40.205605 -122.991570 176 29106ft 474kts
18-Oct-18 18:52 40.075024 -122.988321 176 29115ft 469kts
18-Oct-18 18:53 39.945514 -122.985105 176 29120ft 465kts
18-Oct-18 18:54 39.819675 -122.981995 176 29114ft 462kts
18-Oct-18 18:55 39.696231 -122.978955 176 29123ft 459kts
18-Oct-18 18:56 39.569646 -122.975846 176 29126ft 457kts
18-Oct-18 18:57 39.443685 -122.972764 176 29128ft 456kts
18-Oct-18 18:58 39.317370 -122.969688 176 29128ft 455kts
18-Oct-18 18:59 39.191389 -122.966630 176 29130ft 454kts
18-Oct-18 19:00 39.065428 -122.963580 176 29131ft 454kts
18-Oct-18 19:01 38.939691 -122.960533 176 29130ft 454kts
18-Oct-18 19:02 38.827726 -122.944214 165 28493ft 430kts
18-Oct-18 19:03 38.713039 -122.910998 164 26191ft 419kts
18-Oct-18 19:04 38.620106 -122.883614 164 24436ft 407kts
18-Oct-18 19:05 38.494522 -122.846630 164 22942ft 397kts
18-Oct-18 19:06 38.406319 -122.820712 164 21249ft 385kts
18-Oct-18 19:07 38.287259 -122.785834 164 19124ft 368kts
18-Oct-18 19:08 38.204614 -122.761709 164 18831ft 361kts
18-Oct-18 19:09 38.091813 -122.728899 164 16469ft 353kts
18-Oct-18 19:10 38.012206 -122.705826 164 16136ft 350kts
18-Oct-18 19:11 37.917716 -122.678271 160 16133ft 347kts
18-Oct-18 19:12 37.843643 -122.612796 138 14332ft 335kts
18-Oct-18 19:13 37.773500 -122.539570 138 12827ft 315kts
18-Oct-18 19:14 37.710833 -122.473293 137 11852ft 290kts
18-Oct-18 19:15 37.650766 -122.409503 137 10986ft 274kts
18-Oct-18 19:16 37.586980 -122.354916 150 10375ft 286kts
18-Oct-18 19:17 37.515967 -122.309733 151 8848ft 286kts
18-Oct-18 19:18 37.445811 -122.265096 152 7483ft 281kts
18-Oct-18 19:19 37.418021 -122.189943 59 6073ft 266kts
18-Oct-18 19:20 37.458746 -122.114180 54 4767ft 261kts
18-Oct-18 19:21 37.510061 -122.112633 297 4540ft 212kts
18-Oct-18 19:22 37.535143 -122.176117 298 3337ft 180kts
18-Oct-18 19:23 37.553893 -122.220982 298 2397ft 122kts
18-Oct-18 19:24 37.570284 -122.259866 298 1784ft 129kts
18-Oct-18 19:25 37.586810 -122.299125 298 1083ft 124kts
18-Oct-18 19:26 37.602754 -122.337033 297 430ft 120kts
18-Oct-18 19:27 37.617355 -122.371845 300 22ft 70kts
18-Oct-18 19:28 37.618931 -122.378911 266 22ft 15kts
18-Oct-18 19:29 37.619199 -122.383561 290 22ft 0kts
18-Oct-18 19:30 37.619199 -122.383561 290 22ft 0kts
18-Oct-18 19:31 37.619199 -122.383561 290 22ft 0kts
18-Oct-18 19:32 37.619199 -122.383561 290 22ft 0kts

Navigation Log

Ident Type
Flight plan parsing failed, navigation log unavailable